createdAt,value
2023-02-28T00:01:16.978Z,3.00
2023-02-28T00:03:18.947Z,3.20
2023-02-28T00:05:22.542Z,2.80
2023-02-28T00:07:24.343Z,2.85
2023-02-28T00:09:26.168Z,2.95
2023-02-28T00:11:28.213Z,2.63
2023-02-28T00:13:30.239Z,2.45
2023-02-28T00:15:33.738Z,2.63
2023-02-28T00:17:36.264Z,2.55
2023-02-28T00:19:38.112Z,2.80
2023-02-28T00:21:40.010Z,3.22
2023-02-28T00:23:41.975Z,2.15
2023-02-28T00:25:44.004Z,2.75
2023-02-28T00:27:46.315Z,3.03
2023-02-28T00:29:48.135Z,2.97
2023-02-28T00:31:51.135Z,2.78
2023-02-28T00:33:52.867Z,2.17
2023-02-28T00:36:03.218Z,2.10
2023-02-28T00:38:04.950Z,2.75
2023-02-28T00:40:08.330Z,2.63
2023-02-28T00:42:09.918Z,2.60
2023-02-28T00:44:12.079Z,2.88
2023-02-28T00:46:15.914Z,2.80
2023-02-28T00:48:18.876Z,2.90
2023-02-28T00:50:20.875Z,2.47
2023-02-28T00:52:22.512Z,2.55
2023-02-28T00:54:24.891Z,2.70
2023-02-28T00:56:26.568Z,3.28
2023-02-28T00:58:28.257Z,2.78
2023-02-28T01:00:29.849Z,2.90
2023-02-28T01:02:31.517Z,2.85
2023-02-28T01:04:34.740Z,3.35
2023-02-28T01:06:36.672Z,3.25
2023-02-28T01:08:38.404Z,2.75
2023-02-28T01:10:40.155Z,2.70
2023-02-28T01:12:41.764Z,3.08
2023-02-28T01:14:43.638Z,3.00
2023-02-28T01:16:45.632Z,3.17
2023-02-28T01:18:47.330Z,3.22
2023-02-28T01:20:50.465Z,3.17
2023-02-28T01:22:52.080Z,3.35
2023-02-28T01:24:55.049Z,3.30
2023-02-28T01:26:56.691Z,3.45
2023-02-28T01:28:58.983Z,3.25
2023-02-28T01:31:00.654Z,3.70
2023-02-28T01:33:02.363Z,4.25
2023-02-28T01:35:04.436Z,3.42
2023-02-28T01:37:07.338Z,3.78
2023-02-28T01:39:09.019Z,4.05
2023-02-28T01:41:17.900Z,3.45
2023-02-28T01:43:24.462Z,3.78
2023-02-28T01:45:28.314Z,3.47
2023-02-28T01:47:33.803Z,3.55
2023-02-28T01:49:35.732Z,3.35
2023-02-28T01:51:42.180Z,3.70
2023-02-28T01:53:48.675Z,3.72
2023-02-28T01:55:53.496Z,4.15
2023-02-28T01:57:59.123Z,3.83
2023-02-28T02:00:03.954Z,3.85
2023-02-28T02:04:39.888Z,4.30
2023-02-28T02:06:44.705Z,3.30
2023-02-28T02:08:47.654Z,3.80
2023-02-28T02:10:52.246Z,4.35
2023-02-28T02:13:09.506Z,3.83
2023-02-28T02:15:16.862Z,3.53
2023-02-28T02:17:27.177Z,4.05
2023-02-28T02:20:00.839Z,4.60
2023-02-28T02:22:23.878Z,4.25
2023-02-28T02:25:00.288Z,3.78
2023-02-28T02:27:16.803Z,4.10
2023-02-28T02:29:48.026Z,3.95
2023-02-28T02:32:03.184Z,4.10
2023-02-28T02:34:40.146Z,3.85
2023-02-28T02:36:46.620Z,4.10
2023-02-28T02:38:53.059Z,4.60
2023-02-28T02:41:05.199Z,4.28
2023-02-28T02:43:11.530Z,5.00
2023-02-28T02:45:18.285Z,4.97
2023-02-28T02:47:23.940Z,4.50
2023-02-28T02:49:30.654Z,5.00
2023-02-28T02:51:34.730Z,4.68
2023-02-28T02:53:41.777Z,4.90
2023-02-28T02:55:47.953Z,4.50
2023-02-28T02:57:53.729Z,4.40
2023-02-28T02:59:57.278Z,4.32
2023-02-28T03:02:02.633Z,5.30
2023-02-28T03:04:08.327Z,5.15
2023-02-28T03:06:09.935Z,4.88
2023-02-28T03:08:12.987Z,4.25
2023-02-28T03:10:35.560Z,4.45
2023-02-28T03:12:45.628Z,4.40
2023-02-28T03:14:56.866Z,4.43
2023-02-28T03:17:15.380Z,4.72
2023-02-28T03:19:39.362Z,4.43
2023-02-28T03:21:47.564Z,5.10
2023-02-28T03:23:58.300Z,5.57
2023-02-28T03:26:05.106Z,5.10
2023-02-28T03:28:15.575Z,4.90
2023-02-28T03:30:23.869Z,5.30
2023-02-28T03:32:29.958Z,5.70
2023-02-28T03:34:36.466Z,5.82
2023-02-28T03:36:42.513Z,5.80
2023-02-28T03:38:47.758Z,4.72
2023-02-28T03:40:56.058Z,5.70
2023-02-28T03:43:03.374Z,5.85
2023-02-28T03:45:10.117Z,5.45
2023-02-28T03:47:16.261Z,4.95
2023-02-28T03:49:21.501Z,4.82
2023-02-28T03:51:25.738Z,5.15
2023-02-28T03:53:30.612Z,5.10
2023-02-28T03:55:39.853Z,5.10
2023-02-28T03:57:53.969Z,5.22
2023-02-28T04:00:00.478Z,4.65
2023-02-28T04:02:02.598Z,5.28
2023-02-28T04:04:05.015Z,6.00
2023-02-28T04:06:09.161Z,5.63
2023-02-28T04:08:10.768Z,5.68
2023-02-28T04:10:13.151Z,5.82
2023-02-28T04:12:14.737Z,5.60
2023-02-28T04:14:17.646Z,4.65
2023-02-28T04:16:33.976Z,5.82
2023-02-28T04:18:36.818Z,4.85
2023-02-28T04:20:38.430Z,5.63
2023-02-28T04:22:39.999Z,5.10
2023-02-28T04:24:41.643Z,5.63
2023-02-28T04:26:45.441Z,5.47
2023-02-28T04:28:47.061Z,5.05
2023-02-28T04:30:55.683Z,5.65
2023-02-28T04:33:00.799Z,6.00
2023-02-28T04:35:02.464Z,5.75
2023-02-28T04:37:13.953Z,5.68
2023-02-28T04:39:15.997Z,5.55
2023-02-28T04:41:17.688Z,6.15
2023-02-28T04:43:22.321Z,5.82
2023-02-28T04:45:23.907Z,6.20
2023-02-28T04:47:26.816Z,6.78
2023-02-28T04:49:28.371Z,5.70
2023-02-28T04:51:30.507Z,5.32
2023-02-28T04:53:32.999Z,6.85
2023-02-28T04:55:34.613Z,5.15
2023-02-28T04:57:36.274Z,5.70
2023-02-28T04:59:37.970Z,5.43
2023-02-28T05:01:39.548Z,6.03
2023-02-28T05:03:42.995Z,4.90
2023-02-28T05:05:44.597Z,6.47
2023-02-28T05:07:46.205Z,4.82
2023-02-28T05:09:47.864Z,6.03
2023-02-28T05:11:49.445Z,5.80
2023-02-28T05:13:52.008Z,5.93
2023-02-28T05:15:53.681Z,6.22
2023-02-28T05:17:55.384Z,5.95
2023-02-28T05:20:09.726Z,5.75
2023-02-28T05:22:14.936Z,5.50
2023-02-28T05:24:16.717Z,5.60
2023-02-28T05:26:18.315Z,5.70
2023-02-28T05:28:19.902Z,5.85
2023-02-28T05:30:21.733Z,5.88
2023-02-28T05:32:23.492Z,5.70
2023-02-28T05:34:25.053Z,5.82
2023-02-28T05:36:28.423Z,6.15
2023-02-28T05:38:30.091Z,5.53
2023-02-28T05:40:31.710Z,5.88
2023-02-28T05:42:33.264Z,6.68
2023-02-28T05:44:34.908Z,6.85
2023-02-28T05:46:36.535Z,7.30
2023-02-28T05:48:39.552Z,7.25
2023-02-28T05:50:41.314Z,7.03
2023-02-28T05:52:44.252Z,6.65
2023-02-28T05:54:47.168Z,5.82
2023-02-28T05:56:48.704Z,6.35
2023-02-28T05:58:50.270Z,6.20
2023-02-28T06:00:52.208Z,6.97
2023-02-28T06:02:53.851Z,6.63
2023-02-28T06:04:55.439Z,6.63
2023-02-28T06:06:57.116Z,6.88
2023-02-28T06:09:00.012Z,7.50
2023-02-28T06:11:03.936Z,7.20
2023-02-28T06:13:05.889Z,6.80
2023-02-28T06:15:08.592Z,5.90
2023-02-28T06:17:10.845Z,5.60
2023-02-28T06:19:12.477Z,5.75
2023-02-28T06:21:14.089Z,5.38
2023-02-28T06:23:15.621Z,5.68
2023-02-28T06:25:18.892Z,6.50
2023-02-28T06:27:20.404Z,6.75
2023-02-28T06:29:22.238Z,6.75
2023-02-28T06:31:24.046Z,6.72
2023-02-28T06:33:25.823Z,6.80
2023-02-28T06:35:27.424Z,6.75
2023-02-28T06:37:29.061Z,7.22
2023-02-28T06:39:30.889Z,5.95
2023-02-28T06:41:47.919Z,6.47
2023-02-28T06:43:55.060Z,7.75
2023-02-28T06:45:58.472Z,8.73
2023-02-28T06:48:00.115Z,6.55
2023-02-28T06:50:01.749Z,6.43
2023-02-28T06:52:03.764Z,6.80
2023-02-28T06:54:06.462Z,6.85
2023-02-28T06:56:10.074Z,6.63
2023-02-28T06:58:12.979Z,6.70
2023-02-28T07:00:15.677Z,6.55
2023-02-28T07:02:17.341Z,7.15
2023-02-28T07:04:18.904Z,7.30
2023-02-28T07:06:20.753Z,8.30
2023-02-28T07:08:22.432Z,7.50
2023-02-28T07:10:24.203Z,9.27
2023-02-28T07:12:25.910Z,6.72
2023-02-28T07:14:28.795Z,6.88
2023-02-28T07:16:30.357Z,7.57
2023-02-28T07:18:32.659Z,7.63
2023-02-28T07:20:34.250Z,7.55
2023-02-28T07:22:35.824Z,7.20
2023-02-28T07:24:37.378Z,6.88
2023-02-28T07:26:39.016Z,7.45
2023-02-28T07:28:40.536Z,8.15
2023-02-28T07:30:43.604Z,6.82
2023-02-28T07:32:45.408Z,7.53
2023-02-28T07:34:46.965Z,7.38
2023-02-28T07:36:48.710Z,7.15
2023-02-28T07:38:50.478Z,7.10
2023-02-28T07:40:52.170Z,7.88
2023-02-28T07:42:53.754Z,7.25
2023-02-28T07:44:55.324Z,8.35
2023-02-28T07:46:58.742Z,7.13
2023-02-28T07:49:00.430Z,7.53
2023-02-28T07:51:02.624Z,7.07
2023-02-28T07:53:05.774Z,7.40
2023-02-28T07:55:09.071Z,7.82
2023-02-28T07:57:10.712Z,7.55
2023-02-28T07:59:12.388Z,8.43
2023-02-28T08:01:14.187Z,7.45
2023-02-28T08:03:18.027Z,6.97
2023-02-28T08:05:21.977Z,7.22
2023-02-28T08:07:23.864Z,7.53
2023-02-28T08:09:25.598Z,7.55
2023-02-28T08:11:27.344Z,7.28
2023-02-28T08:13:29.921Z,7.25
2023-02-28T08:15:31.648Z,7.20
2023-02-28T08:17:35.358Z,7.93
2023-02-28T08:19:38.399Z,7.40
2023-02-28T08:21:48.616Z,6.53
2023-02-28T08:23:51.405Z,7.18
2023-02-28T08:25:56.422Z,8.02
2023-02-28T08:27:58.270Z,9.65
2023-02-28T08:29:59.835Z,9.02
2023-02-28T08:32:01.571Z,7.72
2023-02-28T08:34:06.392Z,7.90
2023-02-28T08:36:09.996Z,6.72
2023-02-28T08:38:11.605Z,7.85
2023-02-28T08:40:13.284Z,7.18
2023-02-28T08:42:14.919Z,8.55
2023-02-28T08:44:16.548Z,7.97
2023-02-28T08:46:18.474Z,7.82
2023-02-28T08:48:20.078Z,7.55
2023-02-28T08:50:22.004Z,7.13
2023-02-28T08:52:24.947Z,7.00
2023-02-28T08:54:26.616Z,7.65
2023-02-28T08:56:29.819Z,7.93
2023-02-28T08:58:31.974Z,7.60
2023-02-28T09:00:33.523Z,7.10
2023-02-28T09:02:35.102Z,7.15
2023-02-28T09:04:36.668Z,7.38
2023-02-28T09:06:39.191Z,7.70
2023-02-28T09:08:42.731Z,7.35
2023-02-28T09:10:44.384Z,7.80
2023-02-28T09:12:46.071Z,8.57
2023-02-28T09:14:47.642Z,7.60
2023-02-28T09:16:49.486Z,7.00
2023-02-28T09:18:51.231Z,8.10
2023-02-28T09:20:53.328Z,8.52
2023-02-28T09:22:55.001Z,8.10
2023-02-28T09:24:57.898Z,7.78
2023-02-28T09:27:05.092Z,7.70
2023-02-28T09:29:07.234Z,8.27
2023-02-28T09:31:13.681Z,7.18
2023-02-28T09:33:21.651Z,7.70
2023-02-28T09:35:25.167Z,8.10
2023-02-28T09:37:26.797Z,8.20
2023-02-28T09:39:28.487Z,9.20
2023-02-28T09:41:39.046Z,8.95
2023-02-28T09:43:44.277Z,8.07
2023-02-28T09:45:53.510Z,8.10
2023-02-28T09:47:59.844Z,8.18
2023-02-28T09:50:23.103Z,7.95
2023-02-28T09:52:29.279Z,8.40
2023-02-28T09:54:33.742Z,7.15
2023-02-28T09:56:39.831Z,7.60
2023-02-28T09:58:50.252Z,7.65
2023-02-28T10:01:01.195Z,8.93
2023-02-28T10:03:26.320Z,7.25
2023-02-28T10:05:31.181Z,7.38
2023-02-28T10:07:48.994Z,7.53
2023-02-28T10:09:56.066Z,7.97
2023-02-28T10:12:04.833Z,7.00
2023-02-28T10:14:14.082Z,7.68
2023-02-28T10:16:21.104Z,7.90
2023-02-28T10:18:28.212Z,7.72
2023-02-28T10:20:34.511Z,7.40
2023-02-28T10:22:42.394Z,8.07
2023-02-28T10:24:45.856Z,8.15
2023-02-28T10:26:48.765Z,7.38
2023-02-28T10:28:54.051Z,7.10
2023-02-28T10:30:56.371Z,8.07
2023-02-28T10:32:58.043Z,8.48
2023-02-28T10:35:07.369Z,8.27
2023-02-28T10:37:09.655Z,7.45
2023-02-28T10:39:36.124Z,7.70
2023-02-28T10:41:44.356Z,8.38
2023-02-28T10:43:45.964Z,8.90
2023-02-28T10:45:59.229Z,8.60
2023-02-28T10:48:03.678Z,9.32
2023-02-28T10:50:05.986Z,8.77
2023-02-28T10:52:10.605Z,8.38
2023-02-28T10:54:17.237Z,9.40
2023-02-28T10:56:20.775Z,8.77
2023-02-28T10:58:23.480Z,9.45
2023-02-28T11:00:32.936Z,8.30
2023-02-28T11:02:37.572Z,8.05
2023-02-28T11:04:39.395Z,8.65
2023-02-28T11:06:41.068Z,8.70
2023-02-28T11:08:52.117Z,7.90
2023-02-28T11:10:59.669Z,8.93
2023-02-28T11:13:02.872Z,8.30
2023-02-28T11:15:18.773Z,8.07
2023-02-28T11:17:24.049Z,7.88
2023-02-28T11:19:30.935Z,8.25
2023-02-28T11:21:36.460Z,9.02
2023-02-28T11:23:41.869Z,9.90
2023-02-28T11:25:50.138Z,8.17
2023-02-28T11:27:53.311Z,9.27
2023-02-28T11:29:54.961Z,9.80
2023-02-28T11:32:14.314Z,10.48
2023-02-28T11:34:27.696Z,8.77
2023-02-28T11:36:31.452Z,8.90
2023-02-28T11:38:36.443Z,8.57
2023-02-28T11:40:45.051Z,8.80
2023-02-28T11:42:58.453Z,9.40
2023-02-28T11:45:13.399Z,9.23
2023-02-28T11:47:22.511Z,9.90
2023-02-28T11:49:34.142Z,9.70
2023-02-28T11:51:42.948Z,10.70
2023-02-28T11:54:12.566Z,9.90
2023-02-28T11:56:23.682Z,9.33
2023-02-28T11:58:37.820Z,9.43
2023-02-28T12:00:58.782Z,10.40
2023-02-28T12:38:29.604Z,9.17
2023-02-28T12:40:42.325Z,8.90
2023-02-28T12:42:48.319Z,9.40
2023-02-28T12:44:54.142Z,8.97
2023-02-28T12:47:00.598Z,9.97
2023-02-28T12:49:06.971Z,9.23
2023-02-28T12:51:10.278Z,9.40
2023-02-28T12:53:19.612Z,9.15
2023-02-28T12:55:31.447Z,9.73
2023-02-28T12:57:37.170Z,10.32
2023-02-28T12:59:44.860Z,10.50
2023-02-28T13:02:16.720Z,10.00
2023-02-28T13:04:33.177Z,10.20
2023-02-28T13:06:50.634Z,10.00
2023-02-28T13:09:05.720Z,10.23
2023-02-28T13:11:23.838Z,9.83
2023-02-28T13:13:27.311Z,9.77
2023-02-28T13:15:29.343Z,11.57
2023-02-28T13:17:31.212Z,9.43
2023-02-28T13:19:35.689Z,10.68
2023-02-28T13:21:44.604Z,11.07
2023-02-28T13:24:04.470Z,10.45
2023-02-28T13:26:06.516Z,11.82
2023-02-28T13:28:12.658Z,10.80
2023-02-28T13:30:51.598Z,28.50
2023-02-28T13:33:25.253Z,10.95
2023-02-28T13:35:38.010Z,10.20
2023-02-28T13:37:43.866Z,12.70
2023-02-28T13:39:50.823Z,11.43
2023-02-28T13:41:52.555Z,12.48
2023-02-28T13:44:04.496Z,11.25
2023-02-28T13:46:11.563Z,11.80
2023-02-28T13:48:19.870Z,12.45
2023-02-28T13:50:30.270Z,10.70
2023-02-28T13:52:38.372Z,11.07
2023-02-28T13:54:55.037Z,12.35
2023-02-28T13:57:09.983Z,10.05
2023-02-28T13:59:27.369Z,10.68
2023-02-28T14:02:01.951Z,12.13
2023-02-28T14:04:18.870Z,11.48
2023-02-28T14:06:26.919Z,10.88
2023-02-28T14:08:28.663Z,11.13
2023-02-28T14:10:33.578Z,11.48
2023-02-28T14:13:13.436Z,11.20
2023-02-28T14:15:53.637Z,11.18
2023-02-28T14:17:56.054Z,11.02
2023-02-28T14:19:59.035Z,10.70
2023-02-28T14:22:22.541Z,11.15
2023-02-28T14:24:51.218Z,11.40
2023-02-28T14:27:12.708Z,11.43
2023-02-28T14:29:30.931Z,11.05
2023-02-28T14:31:41.670Z,14.55
2023-02-28T14:34:06.067Z,9.90
2023-02-28T14:36:13.467Z,11.30
2023-02-28T14:38:20.570Z,11.77
2023-02-28T14:40:28.532Z,11.27
2023-02-28T14:42:32.152Z,11.45
2023-02-28T14:44:33.835Z,11.93
2023-02-28T14:46:40.041Z,11.32
2023-02-28T14:48:41.742Z,12.55
2023-02-28T14:50:50.448Z,11.70
2023-02-28T14:52:54.255Z,11.80
2023-02-28T14:54:59.077Z,11.40
2023-02-28T14:57:00.722Z,12.02
2023-02-28T14:59:02.344Z,12.80
2023-02-28T15:01:05.226Z,11.43
2023-02-28T15:03:20.790Z,11.25
2023-02-28T15:05:28.148Z,11.27
2023-02-28T15:07:29.961Z,11.90
2023-02-28T15:11:49.141Z,12.38
2023-02-28T15:13:53.164Z,11.25
2023-02-28T15:16:02.454Z,11.48
2023-02-28T15:18:07.425Z,10.93
2023-02-28T15:20:14.898Z,11.15
2023-02-28T15:22:20.271Z,11.38
2023-02-28T15:24:37.085Z,11.18
2023-02-28T15:26:42.080Z,11.32
2023-02-28T15:28:46.834Z,11.82
2023-02-28T15:30:56.545Z,11.55
2023-02-28T15:33:20.354Z,12.88
2023-02-28T15:35:29.070Z,12.52
2023-02-28T15:37:42.822Z,10.98
2023-02-28T15:39:45.629Z,10.52
2023-02-28T15:41:47.243Z,11.77
2023-02-28T15:43:48.910Z,10.55
2023-02-28T15:45:56.509Z,10.55
2023-02-28T15:48:02.665Z,10.45
2023-02-28T15:50:14.961Z,10.18
2023-02-28T15:52:22.189Z,9.82
2023-02-28T15:54:28.042Z,10.48
2023-02-28T15:56:32.360Z,12.27
2023-02-28T15:58:36.083Z,10.77
2023-02-28T16:00:37.753Z,10.73
2023-02-28T16:02:40.444Z,10.43
2023-02-28T16:05:03.861Z,10.90
2023-02-28T16:07:07.000Z,10.85
2023-02-28T16:09:13.174Z,10.43
2023-02-28T16:11:15.377Z,10.80
2023-02-28T16:13:16.968Z,10.90
2023-02-28T16:15:21.026Z,11.20
2023-02-28T16:17:25.400Z,10.68
2023-02-28T16:19:26.960Z,12.95
2023-02-28T16:21:28.803Z,10.20
2023-02-28T16:23:30.844Z,11.30
2023-02-28T16:25:37.900Z,20.08
2023-02-28T16:27:39.851Z,11.68
2023-02-28T16:29:41.621Z,10.95
2023-02-28T16:31:43.195Z,12.63
2023-02-28T16:33:45.868Z,15.10
2023-02-28T16:35:47.719Z,19.80
2023-02-28T16:37:51.230Z,13.00
2023-02-28T16:39:52.798Z,12.63
2023-02-28T16:41:55.767Z,12.13
2023-02-28T16:43:59.852Z,11.02
2023-02-28T16:46:01.766Z,10.65
2023-02-28T16:48:03.560Z,10.57
2023-02-28T16:50:10.294Z,12.73
2023-02-28T16:52:12.016Z,11.45
2023-02-28T16:54:13.614Z,10.80
2023-02-28T16:56:19.598Z,11.95
2023-02-28T16:58:22.611Z,13.80
2023-02-28T17:00:25.860Z,10.70
2023-02-28T17:02:27.626Z,12.25
2023-02-28T17:04:29.317Z,12.20
2023-02-28T17:06:34.070Z,13.25
2023-02-28T17:08:35.601Z,12.20
2023-02-28T17:10:37.177Z,10.43
2023-02-28T17:12:38.747Z,12.15
2023-02-28T17:14:41.716Z,13.05
2023-02-28T17:16:43.932Z,13.35
2023-02-28T17:18:48.686Z,12.60
2023-02-28T17:20:50.421Z,12.85
2023-02-28T17:22:52.340Z,14.10
2023-02-28T17:24:53.910Z,18.38
2023-02-28T17:26:55.575Z,16.58
2023-02-28T17:28:58.109Z,17.10
2023-02-28T17:31:01.096Z,15.30
2023-02-28T17:33:02.717Z,13.60
2023-02-28T17:37:20.753Z,15.40
2023-02-28T17:39:24.091Z,13.35
2023-02-28T17:41:26.228Z,12.60
2023-02-28T17:43:27.995Z,14.18
2023-02-28T17:45:29.600Z,14.85
2023-02-28T17:47:32.734Z,14.57
2023-02-28T17:49:34.407Z,16.38
2023-02-28T17:51:36.002Z,19.52
2023-02-28T17:53:37.533Z,20.35
2023-02-28T17:55:39.351Z,21.05
2023-02-28T17:57:41.538Z,17.67
2023-02-28T17:59:44.692Z,16.70
2023-02-28T18:01:46.321Z,19.98
2023-02-28T18:03:49.477Z,21.73
2023-02-28T18:05:51.147Z,28.38
2023-02-28T18:07:53.059Z,25.73
2023-02-28T18:09:54.749Z,21.33
2023-02-28T18:11:56.884Z,18.48
2023-02-28T18:13:58.519Z,19.15
2023-02-28T18:16:00.188Z,20.95
2023-02-28T18:18:01.967Z,20.17
2023-02-28T18:20:06.088Z,18.80
2023-02-28T18:22:07.684Z,18.65
2023-02-28T18:24:09.472Z,16.75
2023-02-28T18:26:11.107Z,33.17
2023-02-28T18:28:12.682Z,21.40
2023-02-28T18:30:19.787Z,20.05
2023-02-28T18:32:21.458Z,19.08
2023-02-28T18:34:24.074Z,12.13
2023-02-28T18:36:28.131Z,13.63
2023-02-28T18:38:30.069Z,14.02
2023-02-28T18:40:32.147Z,12.43
2023-02-28T18:42:33.718Z,12.00
2023-02-28T18:44:37.204Z,12.68
2023-02-28T18:46:38.935Z,13.18
2023-02-28T18:48:40.795Z,14.05
2023-02-28T18:50:42.592Z,12.88
2023-02-28T18:52:45.538Z,11.00
2023-02-28T18:54:47.111Z,12.80
2023-02-28T18:56:49.307Z,12.43
2023-02-28T18:58:51.415Z,11.23
2023-02-28T19:00:53.053Z,11.23
2023-02-28T19:02:54.686Z,12.00
2023-02-28T19:04:59.270Z,11.55
2023-02-28T19:07:03.844Z,10.52
2023-02-28T19:09:06.822Z,14.05
2023-02-28T19:11:09.447Z,13.27
2023-02-28T19:13:11.014Z,13.30
2023-02-28T19:15:13.495Z,13.18
2023-02-28T19:17:15.114Z,13.98
2023-02-28T19:19:16.839Z,15.35
2023-02-28T19:21:29.411Z,19.08
2023-02-28T19:23:32.122Z,18.25
2023-02-28T19:25:35.088Z,16.63
2023-02-28T19:27:36.986Z,23.25
2023-02-28T19:29:38.591Z,20.70
2023-02-28T19:31:41.157Z,16.27
2023-02-28T19:33:42.822Z,22.33
2023-02-28T19:35:44.452Z,16.73
2023-02-28T19:37:48.863Z,19.98
2023-02-28T19:39:50.445Z,18.23
2023-02-28T19:41:53.432Z,21.27
2023-02-28T19:43:55.097Z,17.67
2023-02-28T19:45:57.106Z,17.98
2023-02-28T19:47:58.733Z,15.25
2023-02-28T19:50:00.324Z,14.98
2023-02-28T19:52:02.105Z,17.35
2023-02-28T19:54:04.194Z,17.33
2023-02-28T19:56:07.064Z,20.92
2023-02-28T19:58:09.999Z,28.48
2023-02-28T20:00:14.619Z,29.13
2023-02-28T20:02:21.622Z,34.38
2023-02-28T20:04:24.158Z,57.55
2023-02-28T20:06:25.792Z,34.70
2023-02-28T20:08:27.477Z,24.13
2023-02-28T20:10:29.060Z,22.02
2023-02-28T20:12:30.602Z,15.40
2023-02-28T20:14:33.595Z,28.48
2023-02-28T20:16:35.427Z,18.38
2023-02-28T20:18:38.107Z,13.40
2023-02-28T20:20:39.685Z,13.13
2023-02-28T20:22:41.307Z,13.25
2023-02-28T20:24:43.516Z,13.23
2023-02-28T20:26:45.039Z,13.88
2023-02-28T20:28:46.972Z,13.45
2023-02-28T20:30:49.933Z,12.27
2023-02-28T20:32:51.575Z,13.10
2023-02-28T20:34:53.407Z,13.50
2023-02-28T20:36:55.028Z,12.90
2023-02-28T20:38:57.420Z,12.90
2023-02-28T20:41:01.123Z,13.23
2023-02-28T20:43:02.789Z,11.93
2023-02-28T20:45:04.992Z,11.75
2023-02-28T20:47:07.966Z,12.30
2023-02-28T20:49:09.845Z,12.60
2023-02-28T20:51:11.653Z,12.52
2023-02-28T20:53:13.212Z,12.55
2023-02-28T20:55:14.785Z,11.77
2023-02-28T20:57:16.534Z,12.10
2023-02-28T20:59:18.119Z,12.82
2023-02-28T21:01:21.629Z,12.18
2023-02-28T21:03:24.600Z,11.80
2023-02-28T21:05:26.235Z,11.95
2023-02-28T21:07:28.395Z,11.77
2023-02-28T21:09:30.022Z,12.43
2023-02-28T21:11:33.766Z,13.40
2023-02-28T21:13:35.468Z,13.23
2023-02-28T21:15:37.858Z,11.45
2023-02-28T21:17:39.493Z,13.25
2023-02-28T21:19:42.413Z,12.50
2023-02-28T21:21:45.211Z,14.65
2023-02-28T21:23:48.323Z,13.13
2023-02-28T21:25:49.932Z,12.38
2023-02-28T21:27:51.597Z,14.65
2023-02-28T21:29:53.164Z,13.82
2023-02-28T21:31:54.782Z,12.82
2023-02-28T21:33:58.047Z,12.38
2023-02-28T21:36:08.403Z,13.65
2023-02-28T21:38:09.952Z,13.25
2023-02-28T21:40:12.960Z,13.23
2023-02-28T21:42:14.611Z,11.95
2023-02-28T21:44:16.221Z,12.85
2023-02-28T21:46:20.691Z,12.82
2023-02-28T21:48:22.339Z,11.93
2023-02-28T21:50:23.929Z,12.52
2023-02-28T21:52:26.961Z,12.68
2023-02-28T21:54:28.512Z,12.50
2023-02-28T21:56:32.568Z,13.55
2023-02-28T21:58:34.690Z,13.30
2023-02-28T22:00:36.637Z,12.45
2023-02-28T22:02:38.323Z,12.35
2023-02-28T22:04:39.956Z,12.90
2023-02-28T22:06:41.664Z,13.75
2023-02-28T22:08:46.909Z,13.15
2023-02-28T22:10:50.522Z,14.13
2023-02-28T22:12:52.587Z,11.77
2023-02-28T22:14:54.127Z,12.18
2023-02-28T22:16:56.029Z,12.55
2023-02-28T22:18:58.466Z,12.82
2023-02-28T22:21:00.063Z,12.02
2023-02-28T22:23:01.641Z,12.48
2023-02-28T22:25:05.897Z,13.05
2023-02-28T22:27:07.532Z,12.82
2023-02-28T22:29:10.278Z,12.00
2023-02-28T22:31:13.891Z,11.25
2023-02-28T22:33:15.991Z,13.05
2023-02-28T22:35:17.909Z,11.93
2023-02-28T22:37:19.500Z,11.95
2023-02-28T22:39:21.005Z,12.93
2023-02-28T22:41:24.378Z,11.63
2023-02-28T22:43:26.034Z,12.50
2023-02-28T22:45:27.578Z,12.90
2023-02-28T22:47:29.147Z,11.60
2023-02-28T22:49:30.782Z,13.30
2023-02-28T22:51:33.253Z,10.70
2023-02-28T22:53:35.604Z,11.63
2023-02-28T22:55:37.226Z,12.02
2023-02-28T22:57:40.214Z,12.07
2023-02-28T22:59:41.949Z,11.43
2023-02-28T23:01:43.609Z,11.57
2023-02-28T23:03:45.401Z,11.45
2023-02-28T23:05:47.541Z,11.48
2023-02-28T23:07:49.329Z,12.60
2023-02-28T23:09:50.977Z,11.93
2023-02-28T23:11:52.619Z,11.20
2023-02-28T23:13:56.179Z,13.07
2023-02-28T23:16:00.065Z,11.68
2023-02-28T23:18:01.786Z,10.90
2023-02-28T23:20:04.053Z,11.23
2023-02-28T23:22:05.792Z,11.25
2023-02-28T23:24:09.463Z,10.98
2023-02-28T23:26:11.040Z,10.85
2023-02-28T23:28:12.681Z,10.73
2023-02-28T23:30:16.469Z,13.02
2023-02-28T23:32:18.101Z,11.60
2023-02-28T23:34:19.978Z,12.30
2023-02-28T23:36:21.757Z,11.00
2023-02-28T23:38:23.488Z,11.40
2023-02-28T23:40:25.433Z,11.57
2023-02-28T23:42:27.150Z,11.48
2023-02-28T23:44:28.818Z,12.00
2023-02-28T23:46:31.995Z,12.48
2023-02-28T23:48:33.997Z,11.93
2023-02-28T23:50:37.825Z,13.23
2023-02-28T23:52:39.421Z,12.63
2023-02-28T23:54:41.276Z,11.40
2023-02-28T23:56:43.062Z,11.48
2023-02-28T23:58:45.572Z,12.02
